Time;durP1;ratioP1;P1;durP2;ratioP2;P2;SDS_P1;SDS_P2;PMS_P1;PMS_P2;Temp;Humidity;BMP_temperature;BMP_pressure;BME280_temperature;BME280_humidity;BME280_pressure;Samples;Min_cycle;Max_cycle;Signal;HPM_P1;HPM_P2
2021/12/17 00:05:12;;;;;;;11.43;7.00;;;7.60;96.70;;;;;;4973448;28;20038;-70
2021/12/17 00:07:40;;;;;;;9.18;6.93;;;7.70;96.70;;;;;;4977780;28;20042;-70
2021/12/17 00:10:11;;;;;;;10.98;6.95;;;7.60;96.70;;;;;;4971809;28;20436;-70
2021/12/17 00:12:40;;;;;;;10.95;6.95;;;7.60;96.70;;;;;;4972302;28;20066;-70
2021/12/17 00:15:11;;;;;;;8.93;7.20;;;7.50;96.70;;;;;;4954768;28;20689;-70
2021/12/17 00:17:50;;;;;;;9.73;7.20;;;7.50;96.70;;;;;;4970214;28;20210;-70
2021/12/17 00:51:29;;;;;;;7.70;5.95;;;6.80;96.70;;;;;;4967472;28;20085;-71
2021/12/17 00:53:46;;;;;;;9.98;6.35;;;6.70;96.70;;;;;;4959356;28;20038;-71
2021/12/17 00:56:14;;;;;;;8.05;5.68;;;6.70;96.70;;;;;;4975032;28;20038;-71
2021/12/17 00:58:42;;;;;;;10.20;6.53;;;6.80;96.70;;;;;;4962613;28;20075;-71
2021/12/17 01:01:11;;;;;;;10.80;6.93;;;6.90;96.70;;;;;;4956884;28;20054;-71
2021/12/17 01:03:41;;;;;;;10.05;6.22;;;6.90;96.70;;;;;;4958017;28;20129;-71
2021/12/17 01:06:09;;;;;;;9.70;6.35;;;6.70;96.70;;;;;;4957310;28;20138;-71
2021/12/17 01:08:38;;;;;;;9.75;6.65;;;6.70;96.70;;;;;;4957900;28;20038;-71
2021/12/17 01:11:10;;;;;;;7.47;6.10;;;6.70;96.70;;;;;;4956349;28;20047;-71
2021/12/17 01:14:02;;;;;;;11.35;6.28;;;6.50;96.70;;;;;;4969907;28;20409;-71
2021/12/17 01:16:50;;;;;;;;;;;6.60;96.70;;;;;;4980886;28;20070;-71
2021/12/17 01:42:38;;;;;;;9.07;6.47;;;6.30;96.70;;;;;;4951616;28;20046;-71
2021/12/17 01:45:07;;;;;;;8.48;6.22;;;6.40;96.70;;;;;;4957246;28;20046;-71
2021/12/17 01:47:36;;;;;;;9.90;6.70;;;6.40;96.70;;;;;;4954521;28;20509;-71
2021/12/17 02:01:02;;;;;;;10.82;6.63;;;6.20;96.70;;;;;;4954742;28;20054;-71
2021/12/17 02:03:30;;;;;;;9.10;6.32;;;6.20;96.70;;;;;;4957311;28;20516;-71
2021/12/17 02:06:03;;;;;;;8.02;6.63;;;6.30;96.70;;;;;;4962426;28;20591;-70
2021/12/17 02:08:32;;;;;;;11.75;6.95;;;6.20;96.70;;;;;;4953122;28;20058;-70
2021/12/17 02:33:04;;;;;;;12.98;7.22;;;5.70;96.70;;;;;;4972627;28;20054;-70
2021/12/17 02:35:41;;;;;;;14.32;8.68;;;5.70;96.70;;;;;;4951157;28;21451;-70
2021/12/17 05:47:58;;;;;;;6.63;4.85;;;5.30;96.70;;;;;;4957447;28;20104;-70
2021/12/17 05:50:32;;;;;;;11.90;6.85;;;5.30;96.70;;;;;;4944040;28;20047;-70
2021/12/17 05:53:00;;;;;;;7.40;5.57;;;5.30;96.70;;;;;;4941766;28;20131;-70
2021/12/17 05:55:29;;;;;;;7.82;5.88;;;5.20;96.70;;;;;;4956601;28;20134;-70
2021/12/17 05:57:57;;;;;;;11.63;5.43;;;5.30;96.70;;;;;;4973312;28;20382;-70
2021/12/17 06:00:30;;;;;;;7.93;5.90;;;5.40;96.70;;;;;;4978607;28;20046;-70
2021/12/17 06:03:11;;;;;;;9.38;5.45;;;5.30;96.70;;;;;;4956996;28;20050;-70
2021/12/17 06:05:52;;;;;;;9.85;6.00;;;5.30;96.70;;;;;;4958928;28;20137;-70
2021/12/17 06:08:21;;;;;;;10.63;5.90;;;5.20;96.70;;;;;;4942851;28;20416;-70
2021/12/17 06:10:50;;;;;;;11.88;6.60;;;5.30;96.70;;;;;;4955159;28;20043;-70
2021/12/17 06:13:20;;;;;;;8.02;5.80;;;5.40;96.70;;;;;;4960259;28;20070;-70
2021/12/17 06:15:51;;;;;;;10.82;7.80;;;5.30;96.70;;;;;;4953834;28;20050;-70
2021/12/17 06:18:19;;;;;;;11.27;7.55;;;5.30;96.70;;;;;;4952871;28;20688;-70
2021/12/17 06:20:47;;;;;;;11.02;6.60;;;5.20;96.70;;;;;;4958511;28;20062;-70
2021/12/17 06:23:15;;;;;;;9.38;6.93;;;5.10;96.70;;;;;;4956798;28;20047;-70
2021/12/17 06:25:44;;;;;;;11.18;7.18;;;5.10;96.70;;;;;;4957441;28;20054;-70
2021/12/17 06:28:14;;;;;;;9.13;6.20;;;5.20;96.70;;;;;;4955207;28;20141;-70
2021/12/17 06:30:42;;;;;;;12.45;6.78;;;5.30;96.70;;;;;;4953596;28;20047;-70
2021/12/17 06:33:20;;;;;;;15.43;6.38;;;5.20;96.70;;;;;;4954972;28;20564;-70
2021/12/17 06:35:48;;;;;;;9.45;6.97;;;5.20;96.70;;;;;;4938448;28;20157;-70
2021/12/17 06:38:16;;;;;;;10.18;6.88;;;5.30;96.70;;;;;;4961955;28;20560;-70
2021/12/17 06:40:45;;;;;;;11.85;6.38;;;5.30;96.70;;;;;;4956672;28;20527;-70
2021/12/17 06:43:13;;;;;;;13.60;7.75;;;5.20;96.70;;;;;;4953661;28;20121;-70
2021/12/17 06:48:10;;;;;;;13.80;7.63;;;5.00;96.70;;;;;;4953044;28;20043;-70
2021/12/17 07:06:33;;;;;;;14.70;8.32;;;5.10;96.70;;;;;;4954872;28;20063;-70
2021/12/17 07:18:09;;;;;;;18.13;8.35;;;5.20;96.70;;;;;;4951201;28;20073;-70
2021/12/17 07:40:11;;;;;;;20.63;11.50;;;5.20;96.70;;;;;;4954419;28;20560;-70
2021/12/17 07:42:46;;;;;;;18.75;9.82;;;5.20;96.70;;;;;;4948347;28;20047;-71
2021/12/17 07:45:33;;;;;;;16.77;10.15;;;5.30;96.70;;;;;;4955261;28;20075;-71
2021/12/17 07:48:07;;;;;;;15.23;10.15;;;5.30;96.70;;;;;;4950808;28;20043;-70
2021/12/17 07:50:57;;;;;;;18.85;11.00;;;5.20;96.70;;;;;;4955361;28;20043;-70
2021/12/17 07:53:32;;;;;;;20.20;11.57;;;5.40;96.70;;;;;;4950081;28;20093;-70
2021/12/17 07:56:09;;;;;;;16.40;10.90;;;5.40;96.70;;;;;;4949071;28;20584;-71
2021/12/17 07:58:39;;;;;;;19.02;10.15;;;5.60;96.70;;;;;;4949915;28;20047;-71
2021/12/17 08:01:10;;;;;;;23.60;11.75;;;5.80;96.70;;;;;;4957050;28;20532;-70
2021/12/17 08:03:42;;;;;;;20.77;10.32;;;5.90;96.70;;;;;;4941952;28;20727;-70
2021/12/17 08:06:49;;;;;;;;;;;6.10;96.70;;;;;;4916784;29;20098;-71
2021/12/17 08:09:25;;;;;;;20.50;9.95;;;6.10;96.70;;;;;;4893156;29;19962;-70
2021/12/17 08:11:57;;;;;;;20.13;9.80;;;6.20;96.70;;;;;;4934574;28;20055;-71
2021/12/17 08:14:43;;;;;;;20.60;9.63;;;6.30;96.70;;;;;;4956295;28;20141;-72
2021/12/17 08:26:01;;;;;;;20.08;8.95;;;6.70;96.70;;;;;;4952392;28;20150;-71
2021/12/17 08:31:25;;;;;;;20.15;9.18;;;6.90;96.70;;;;;;4958195;28;19929;-71
2021/12/17 08:33:55;;;;;;;13.73;7.50;;;6.90;96.70;;;;;;4957324;28;20059;-71
2021/12/17 08:36:30;;;;;;;17.48;8.35;;;7.00;96.70;;;;;;4954762;28;20039;-70
2021/12/17 08:39:00;;;;;;;15.75;7.68;;;7.10;96.70;;;;;;4954685;28;20039;-72
2021/12/17 08:41:32;;;;;;;18.25;8.23;;;7.20;96.70;;;;;;4959707;28;20071;-72
2021/12/17 08:44:04;;;;;;;14.85;8.73;;;7.30;96.70;;;;;;4952182;28;20051;-72
2021/12/17 08:46:35;;;;;;;11.55;6.57;;;7.50;96.70;;;;;;4940619;28;20791;-70
2021/12/17 08:49:14;;;;;;;10.27;6.55;;;7.60;96.70;;;;;;4953918;28;20192;-72
2021/12/17 08:51:54;;;;;;;13.02;6.53;;;7.70;96.70;;;;;;4951743;28;20051;-70
2021/12/17 08:54:23;;;;;;;14.52;8.32;;;7.80;96.70;;;;;;4951824;28;20425;-70
2021/12/17 08:56:51;;;;;;;12.85;6.85;;;8.00;96.70;;;;;;4952695;28;20053;-71
2021/12/17 08:59:28;;;;;;;9.88;6.22;;;8.10;96.70;;;;;;4951690;28;20047;-70
2021/12/17 09:02:19;;;;;;;11.60;6.00;;;8.20;96.70;;;;;;4956024;28;20055;-70
2021/12/17 09:05:08;;;;;;;7.65;5.32;;;8.40;96.70;;;;;;4955797;28;20066;-71
2021/12/17 09:07:43;;;;;;;10.30;5.53;;;8.40;96.70;;;;;;4944279;28;20508;-71
2021/12/17 09:10:32;;;;;;;8.23;4.75;;;8.50;96.70;;;;;;4953306;28;20113;-71
2021/12/17 09:13:02;;;;;;;9.68;5.70;;;8.60;96.70;;;;;;4952675;28;20070;-72
2021/12/17 09:15:32;;;;;;;8.75;4.53;;;8.70;96.70;;;;;;4951625;28;20062;-72
2021/12/17 09:18:03;;;;;;;8.30;4.88;;;8.80;96.70;;;;;;4953979;28;20054;-71
2021/12/17 09:20:37;;;;;;;7.97;4.75;;;8.90;96.70;;;;;;4940089;28;20473;-71
2021/12/17 09:23:07;;;;;;;9.02;5.40;;;9.00;96.70;;;;;;4940019;28;20149;-74
2021/12/17 09:25:35;;;;;;;7.78;5.00;;;9.00;96.70;;;;;;4941279;28;20273;-71
2021/12/17 09:28:08;;;;;;;6.60;4.60;;;9.10;96.70;;;;;;4959901;28;20102;-71
2021/12/17 09:30:47;;;;;;;7.22;4.60;;;9.20;96.70;;;;;;4950327;28;20087;-72
2021/12/17 09:33:15;;;;;;;8.98;4.88;;;9.40;96.70;;;;;;4941511;28;20478;-72
2021/12/17 09:35:44;;;;;;;7.35;5.07;;;9.40;96.70;;;;;;4959524;28;20042;-73
2021/12/17 09:38:12;;;;;;;6.72;4.53;;;9.50;96.70;;;;;;4956129;28;20109;-71
2021/12/17 09:40:40;;;;;;;7.22;4.88;;;9.60;96.70;;;;;;4961159;28;20371;-72
2021/12/17 09:43:10;;;;;;;9.60;4.95;;;9.70;96.70;;;;;;4954839;28;20055;-71
2021/12/17 09:45:38;;;;;;;9.57;4.20;;;9.90;96.70;;;;;;4953028;28;20809;-71
2021/12/17 09:48:07;;;;;;;8.70;4.20;;;10.00;96.70;;;;;;4952943;28;20137;-71
2021/12/17 09:50:36;;;;;;;7.18;4.32;;;10.10;96.70;;;;;;4952881;28;20043;-71
2021/12/17 09:53:04;;;;;;;9.50;4.80;;;10.20;96.70;;;;;;4954714;28;20114;-74
2021/12/17 09:55:32;;;;;;;6.80;4.15;;;10.30;96.70;;;;;;4955270;28;20047;-71
2021/12/17 09:58:01;;;;;;;5.45;3.47;;;10.40;96.70;;;;;;4955449;28;20046;-71
2021/12/17 10:00:29;;;;;;;7.00;4.38;;;10.50;96.70;;;;;;4953542;28;20141;-71
2021/12/17 10:02:59;;;;;;;8.20;4.28;;;10.50;96.70;;;;;;4952918;28;20104;-71
2021/12/17 10:05:31;;;;;;;5.75;4.10;;;10.50;96.70;;;;;;4954374;28;20039;-71
2021/12/17 10:08:04;;;;;;;8.10;4.60;;;10.70;96.70;;;;;;4954120;28;20049;-71
2021/12/17 10:10:33;;;;;;;7.35;4.47;;;10.80;96.70;;;;;;4958744;28;20460;-72
2021/12/17 10:13:10;;;;;;;7.40;4.85;;;10.90;96.70;;;;;;4953818;28;20043;-71
2021/12/17 10:15:40;;;;;;;10.13;5.22;;;11.00;96.70;;;;;;4954177;28;20039;-71
2021/12/17 10:18:08;;;;;;;8.07;5.18;;;11.10;96.70;;;;;;4947061;28;20047;-71
2021/12/17 10:20:53;;;;;;;8.35;5.53;;;11.20;96.70;;;;;;4950048;28;20451;-72
2021/12/17 10:23:24;;;;;;;8.65;4.75;;;11.30;96.70;;;;;;4948490;28;20050;-72
2021/12/17 10:25:52;;;;;;;6.18;4.47;;;11.30;96.70;;;;;;4952646;28;20051;-72
2021/12/17 10:28:21;;;;;;;7.57;4.45;;;11.40;96.70;;;;;;4951650;28;20050;-72
2021/12/17 10:30:51;;;;;;;9.25;4.72;;;11.50;96.70;;;;;;4952608;28;20038;-70
2021/12/17 10:33:23;;;;;;;8.23;4.93;;;11.70;96.70;;;;;;4953552;28;20304;-71
2021/12/17 10:35:56;;;;;;;8.50;5.43;;;11.70;96.70;;;;;;4954443;28;20048;-71
2021/12/17 10:38:26;;;;;;;9.95;5.53;;;11.80;96.70;;;;;;4951883;28;20043;-71
2021/12/17 10:41:09;;;;;;;9.93;5.38;;;11.90;96.70;;;;;;4956401;28;20105;-71
2021/12/17 10:43:41;;;;;;;9.27;4.78;;;12.00;96.70;;;;;;4962249;28;20046;-71
2021/12/17 10:46:21;;;;;;;7.22;4.40;;;12.00;96.70;;;;;;4952685;28;20567;-70
2021/12/17 10:49:00;;;;;;;11.48;5.35;;;12.10;96.70;;;;;;4956842;28;20045;-71
2021/12/17 10:54:10;;;;;;;6.57;3.85;;;12.30;96.70;;;;;;4958983;28;20077;-71
2021/12/17 10:56:42;;;;;;;9.30;4.40;;;12.40;96.70;;;;;;4973238;28;20038;-71
2021/12/17 10:59:12;;;;;;;7.85;3.55;;;12.50;96.70;;;;;;4960016;28;20042;-71
2021/12/17 11:01:45;;;;;;;7.07;3.38;;;12.50;96.70;;;;;;4973485;28;20042;-71
2021/12/17 11:04:19;;;;;;;7.55;3.95;;;12.50;96.70;;;;;;4958404;28;20198;-70
2021/12/17 11:06:52;;;;;;;8.98;3.65;;;12.60;96.70;;;;;;4941045;28;20061;-71
2021/12/17 11:09:41;;;;;;;6.10;3.80;;;12.60;96.70;;;;;;4953887;28;20070;-71
2021/12/17 11:12:25;;;;;;;9.07;4.10;;;12.70;96.70;;;;;;4969135;28;20049;-71
2021/12/17 11:14:56;;;;;;;7.18;4.03;;;12.80;96.70;;;;;;4972712;28;20539;-71
2021/12/17 11:17:29;;;;;;;7.13;4.20;;;12.90;96.70;;;;;;4971941;28;20162;-71
2021/12/17 11:20:08;;;;;;;7.18;4.68;;;13.00;96.70;;;;;;4953728;28;20047;-71
2021/12/17 11:22:39;;;;;;;7.38;4.20;;;13.10;96.70;;;;;;4975625;28;20156;-71
2021/12/17 11:25:10;;;;;;;5.72;3.88;;;13.30;96.70;;;;;;4958266;28;20072;-71
2021/12/17 11:27:38;;;;;;;6.20;3.60;;;13.30;96.70;;;;;;4969467;28;20035;-71
2021/12/17 11:30:08;;;;;;;7.13;3.97;;;13.40;96.70;;;;;;4952613;28;20050;-71
2021/12/17 11:32:36;;;;;;;7.00;3.65;;;13.60;96.70;;;;;;4954179;28;20129;-71
2021/12/17 11:35:06;;;;;;;5.35;3.40;;;13.70;96.70;;;;;;4974209;28;20050;-71
2021/12/17 11:37:34;;;;;;;5.45;3.30;;;13.80;96.70;;;;;;4953139;28;20057;-71
2021/12/17 11:40:09;;;;;;;4.93;3.28;;;13.80;96.70;;;;;;4954566;28;20078;-71
2021/12/17 11:42:59;;;;;;;5.82;2.70;;;13.90;96.70;;;;;;4966553;28;20156;-71
2021/12/17 11:45:29;;;;;;;4.38;3.00;;;14.00;96.70;;;;;;4956281;28;20049;-71
2021/12/17 11:48:18;;;;;;;3.95;2.88;;;14.10;96.70;;;;;;4970840;28;20126;-71
2021/12/17 11:51:06;;;;;;;5.25;2.85;;;14.20;96.70;;;;;;4939899;28;20066;-71
2021/12/17 11:53:41;;;;;;;4.18;3.28;;;14.40;96.70;;;;;;4970131;28;20042;-71
2021/12/17 11:56:11;;;;;;;4.85;3.13;;;14.50;96.70;;;;;;4974516;28;20074;-71
2021/12/17 11:58:50;;;;;;;5.05;2.92;;;14.50;96.70;;;;;;4969470;28;20031;-71
2021/12/17 12:01:47;;;;;;;6.97;2.83;;;14.60;96.70;;;;;;4953294;28;20386;-71
2021/12/17 12:04:24;;;;;;;4.85;2.97;;;14.70;96.70;;;;;;4935913;28;20694;-71
2021/12/17 12:07:00;;;;;;;7.07;3.80;;;14.70;96.70;;;;;;4954787;28;20050;-71
2021/12/17 12:09:57;;;;;;;5.45;3.35;;;14.80;96.70;;;;;;4950967;28;20051;-71
2021/12/17 12:12:46;;;;;;;6.55;3.60;;;14.90;96.70;;;;;;4954061;28;20113;-71
2021/12/17 12:15:36;;;;;;;4.90;3.60;;;15.00;96.70;;;;;;4969186;28;20453;-71
2021/12/17 12:18:21;;;;;;;5.72;2.95;;;15.10;96.70;;;;;;4956205;28;20042;-71
2021/12/17 12:21:00;;;;;;;3.95;2.97;;;15.20;96.70;;;;;;4974882;28;20046;-71
2021/12/17 12:23:41;;;;;;;3.72;2.75;;;15.20;96.70;;;;;;4971839;28;20554;-71
2021/12/17 12:26:33;;;;;;;4.68;2.65;;;15.40;96.70;;;;;;4956899;28;20054;-71
2021/12/17 12:29:07;;;;;;;4.38;3.13;;;15.40;96.70;;;;;;4965729;28;20078;-71
2021/12/17 12:32:00;;;;;;;3.75;2.50;;;15.60;96.70;;;;;;4971139;28;20050;-71
2021/12/17 12:34:37;;;;;;;4.10;2.72;;;15.60;96.70;;;;;;4970072;28;20353;-71
2021/12/17 12:37:26;;;;;;;5.15;3.30;;;15.70;96.70;;;;;;4971157;28;20042;-71
2021/12/17 12:40:15;;;;;;;4.38;2.85;;;15.70;96.70;;;;;;4944470;28;20497;-71
2021/12/17 12:42:52;;;;;;;5.22;2.60;;;15.90;96.70;;;;;;4969740;28;20046;-71
2021/12/17 12:45:23;;;;;;;4.75;2.00;;;15.90;96.70;;;;;;4934536;28;20097;-71
2021/12/17 12:47:58;;;;;;;4.10;2.20;;;16.00;96.70;;;;;;4972247;28;20050;-71
2021/12/17 12:50:31;;;;;;;2.33;1.67;;;16.00;96.70;;;;;;4957498;28;20520;-71
2021/12/17 12:53:03;;;;;;;4.53;2.90;;;15.90;96.70;;;;;;4958511;28;20034;-71
2021/12/17 12:55:34;;;;;;;3.40;2.95;;;15.90;96.70;;;;;;4979724;28;20043;-71
2021/12/17 12:58:09;;;;;;;2.85;1.33;;;15.90;96.70;;;;;;4956014;28;20050;-71
2021/12/17 13:00:43;;;;;;;2.03;1.50;;;16.00;96.70;;;;;;4955593;28;20043;-71
2021/12/17 13:03:14;;;;;;;3.33;2.28;;;16.00;96.70;;;;;;4974872;28;20057;-71
2021/12/17 13:05:44;;;;;;;2.85;1.60;;;16.00;96.70;;;;;;4968882;28;20038;-71
2021/12/17 13:08:14;;;;;;;2.95;2.10;;;16.00;96.70;;;;;;4979146;28;20038;-71
2021/12/17 13:10:45;;;;;;;4.60;3.05;;;16.00;96.70;;;;;;4976707;28;20042;-71
2021/12/17 13:13:22;;;;;;;2.25;1.48;;;16.00;96.70;;;;;;4975956;28;20050;-71
2021/12/17 13:21:17;;;;;;;9.40;6.20;;;15.80;96.70;;;;;;4971149;28;20049;-71
2021/12/17 13:23:50;;;;;;;2.45;1.52;;;15.60;96.70;;;;;;4962483;28;20055;-71
2021/12/17 13:26:23;;;;;;;3.20;1.77;;;15.40;96.70;;;;;;4955886;28;20051;-71
2021/12/17 13:29:00;;;;;;;8.30;5.57;;;15.40;96.70;;;;;;4957467;28;20602;-71
2021/12/17 13:31:39;;;;;;;3.67;2.78;;;15.30;96.70;;;;;;4957348;28;20043;-71
2021/12/17 13:34:17;;;;;;;3.38;1.73;;;15.10;96.70;;;;;;4943624;28;20109;-71
2021/12/17 13:37:08;;;;;;;3.38;2.17;;;15.10;96.70;;;;;;4955737;28;20046;-71
2021/12/17 13:39:40;;;;;;;5.40;3.70;;;15.20;96.70;;;;;;4952710;28;20053;-71
2021/12/17 13:42:12;;;;;;;2.97;1.45;;;15.10;96.70;;;;;;4965403;28;20054;-71
2021/12/17 13:44:43;;;;;;;5.20;2.72;;;15.00;96.70;;;;;;4937812;28;20138;-71
2021/12/17 13:47:29;;;;;;;4.82;2.25;;;14.90;96.70;;;;;;4956015;28;20050;-70
2021/12/17 13:50:00;;;;;;;3.03;1.33;;;14.90;96.70;;;;;;4955013;28;20045;-70
2021/12/17 13:52:36;;;;;;;5.00;2.35;;;14.90;96.70;;;;;;4954145;28;20047;-70
2021/12/17 13:55:10;;;;;;;6.35;4.18;;;15.00;96.70;;;;;;4950590;28;20093;-70
2021/12/17 13:57:41;;;;;;;4.75;3.15;;;15.00;96.70;;;;;;4951511;28;20047;-70
2021/12/17 14:00:12;;;;;;;5.63;3.95;;;14.90;96.70;;;;;;4953288;28;20070;-70
2021/12/17 14:02:44;;;;;;;4.15;2.72;;;14.80;96.70;;;;;;4951789;28;20043;-70
2021/12/17 14:05:16;;;;;;;6.60;3.15;;;14.80;96.70;;;;;;4953996;28;20535;-70
2021/12/17 14:07:49;;;;;;;4.43;2.58;;;14.80;96.70;;;;;;4954594;28;20090;-70
2021/12/17 14:10:19;;;;;;;6.60;3.03;;;14.80;96.70;;;;;;4953000;28;20454;-70
2021/12/17 14:12:49;;;;;;;4.47;2.08;;;14.70;96.70;;;;;;4955026;28;20118;-70
2021/12/17 14:15:40;;;;;;;5.35;2.58;;;14.70;96.70;;;;;;4959191;28;20461;-71
2021/12/17 14:18:14;;;;;;;5.43;2.10;;;14.70;96.70;;;;;;4957136;28;20043;-71
2021/12/17 14:20:44;;;;;;;5.53;2.58;;;14.70;96.70;;;;;;4952777;28;20194;-71
2021/12/17 14:23:15;;;;;;;8.70;3.85;;;14.50;96.70;;;;;;4951074;28;20584;-70
2021/12/17 14:25:45;;;;;;;8.55;4.10;;;14.40;96.70;;;;;;4954242;28;20050;-71
2021/12/17 14:28:16;;;;;;;6.28;3.75;;;14.30;96.70;;;;;;4956631;28;20073;-70
2021/12/17 14:30:48;;;;;;;5.25;3.10;;;14.30;96.70;;;;;;4951441;28;20050;-71
2021/12/17 14:33:19;;;;;;;5.90;2.28;;;14.40;96.70;;;;;;4954142;28;20041;-71
2021/12/17 14:35:56;;;;;;;6.78;3.10;;;14.40;96.70;;;;;;4949728;28;20543;-71
2021/12/17 14:38:41;;;;;;;5.45;2.63;;;14.40;96.70;;;;;;4950873;28;20129;-71
2021/12/17 14:41:14;;;;;;;5.13;2.88;;;14.40;96.70;;;;;;4951596;28;20046;-71
2021/12/17 14:43:48;;;;;;;5.55;3.08;;;14.20;96.70;;;;;;4964308;28;20042;-71
2021/12/17 14:46:23;;;;;;;13.50;4.95;;;14.20;96.70;;;;;;4969833;28;20047;-70
2021/12/17 14:49:26;;;;;;;8.88;3.92;;;14.20;96.70;;;;;;4956389;28;20070;-71
2021/12/17 15:02:59;;;;;;;11.40;5.38;;;14.00;96.70;;;;;;4958577;28;20512;-71
2021/12/17 15:05:31;;;;;;;9.30;3.65;;;14.00;96.70;;;;;;4956956;28;20092;-71
2021/12/17 15:08:01;;;;;;;6.93;3.58;;;13.90;96.70;;;;;;4958383;28;20484;-71
2021/12/17 15:10:30;;;;;;;8.05;3.65;;;14.00;96.70;;;;;;4943877;28;20519;-71
2021/12/17 15:13:00;;;;;;;12.43;4.93;;;13.90;96.70;;;;;;4956258;28;20043;-71
2021/12/17 15:15:30;;;;;;;8.82;3.90;;;13.90;96.70;;;;;;4936595;28;20051;-71
2021/12/17 15:17:59;;;;;;;51.60;23.27;;;13.80;96.70;;;;;;4972153;28;20130;-71
2021/12/17 15:20:31;;;;;;;82.28;46.17;;;13.80;96.70;;;;;;4962052;28;20154;-71
2021/12/17 15:23:03;;;;;;;33.25;20.77;;;13.70;96.70;;;;;;4957277;28;20562;-71
2021/12/17 15:25:32;;;;;;;33.35;20.08;;;13.70;96.70;;;;;;4975476;28;20050;-71
2021/12/17 15:28:00;;;;;;;12.25;5.50;;;13.60;96.70;;;;;;4973691;28;20149;-71
2021/12/17 15:30:31;;;;;;;20.05;10.40;;;13.40;96.70;;;;;;4970082;28;20197;-71
2021/12/17 15:33:00;;;;;;;10.73;6.22;;;13.30;96.70;;;;;;4957923;28;20038;-71
2021/12/17 15:35:31;;;;;;;11.45;6.13;;;13.20;96.70;;;;;;4956806;28;20038;-71
2021/12/17 15:37:59;;;;;;;13.00;7.25;;;13.10;96.70;;;;;;4972216;28;20495;-71
2021/12/17 15:40:31;;;;;;;13.57;8.18;;;12.90;96.70;;;;;;4953823;28;20508;-71
2021/12/17 15:43:02;;;;;;;8.27;4.70;;;12.70;96.70;;;;;;4957736;28;21061;-70
2021/12/17 15:45:31;;;;;;;7.20;4.85;;;12.60;96.70;;;;;;4938540;28;20077;-70
2021/12/17 15:48:00;;;;;;;7.50;4.35;;;12.60;96.70;;;;;;4951859;28;20084;-70
2021/12/17 15:50:49;;;;;;;11.30;6.03;;;12.40;96.70;;;;;;4971825;28;20050;-70
2021/12/17 15:53:18;;;;;;;10.02;6.00;;;12.30;96.70;;;;;;4971531;28;20101;-70
2021/12/17 15:55:46;;;;;;;11.98;7.20;;;12.20;96.70;;;;;;4972868;28;20052;-70
2021/12/17 15:58:14;;;;;;;12.57;8.30;;;12.10;96.70;;;;;;4954980;28;20110;-70
2021/12/17 16:00:48;;;;;;;10.30;7.70;;;11.90;96.70;;;;;;4972180;28;20077;-70
2021/12/17 16:03:25;;;;;;;14.43;9.60;;;11.80;96.70;;;;;;4971389;28;20606;-70
2021/12/17 16:05:56;;;;;;;16.20;9.65;;;11.80;96.70;;;;;;4971190;28;20049;-70
2021/12/17 16:08:24;;;;;;;21.98;14.52;;;11.80;96.70;;;;;;4971220;28;20051;-70
2021/12/17 16:21:53;;;;;;;26.92;18.00;;;11.50;96.70;;;;;;4979645;28;20054;-70
2021/12/17 16:24:22;;;;;;;26.63;16.85;;;11.40;96.70;;;;;;4954483;28;20186;-70
2021/12/17 16:26:50;;;;;;;27.83;18.60;;;11.40;96.70;;;;;;4942142;28;20166;-70
2021/12/17 16:29:18;;;;;;;29.23;19.48;;;11.40;96.70;;;;;;4975849;28;20133;-70
2021/12/17 16:31:48;;;;;;;30.27;20.50;;;11.40;96.70;;;;;;4971729;28;20149;-70
2021/12/17 16:34:16;;;;;;;30.15;20.83;;;11.20;96.70;;;;;;4975896;28;20038;-70
2021/12/17 16:36:44;;;;;;;31.63;19.45;;;11.20;96.70;;;;;;4978580;28;20042;-70
2021/12/17 16:39:16;;;;;;;27.58;20.50;;;11.20;96.70;;;;;;4977317;28;20054;-70
2021/12/17 16:41:44;;;;;;;27.58;19.98;;;11.10;96.70;;;;;;4976404;28;20051;-70
2021/12/17 16:44:16;;;;;;;27.50;19.52;;;11.10;96.70;;;;;;4978630;28;20804;-70
2021/12/17 16:49:28;;;;;;;28.67;18.80;;;11.00;96.70;;;;;;4977705;28;20042;-70
2021/12/17 16:51:56;;;;;;;31.98;19.92;;;11.00;96.70;;;;;;4977780;28;20504;-70
2021/12/17 16:54:29;;;;;;;33.78;19.67;;;11.00;96.70;;;;;;4977894;28;20034;-70
2021/12/17 16:56:57;;;;;;;27.35;18.83;;;10.90;96.70;;;;;;4976218;28;20455;-70
2021/12/17 16:59:26;;;;;;;30.95;19.50;;;10.80;96.70;;;;;;4973996;28;20043;-70
2021/12/17 17:01:54;;;;;;;28.13;18.08;;;10.80;96.70;;;;;;4974146;28;20081;-70
2021/12/17 17:04:22;;;;;;;24.65;16.48;;;10.60;96.70;;;;;;4971286;28;20035;-71
2021/12/17 17:06:51;;;;;;;25.55;16.42;;;10.50;96.70;;;;;;4971023;28;20076;-71
2021/12/17 17:09:19;;;;;;;28.13;17.02;;;10.60;96.70;;;;;;4955713;28;20094;-71
2021/12/17 17:11:49;;;;;;;28.33;16.83;;;10.50;96.70;;;;;;4975198;28;20039;-71
2021/12/17 17:14:17;;;;;;;28.27;18.42;;;10.50;96.70;;;;;;4973017;28;20047;-71
2021/12/17 17:16:46;;;;;;;33.97;18.88;;;10.50;96.70;;;;;;4958445;28;20047;-71
2021/12/17 17:19:14;;;;;;;37.67;19.58;;;10.40;96.70;;;;;;4974773;28;20088;-71
2021/12/17 17:21:42;;;;;;;30.80;18.15;;;10.30;96.70;;;;;;4943612;28;20050;-71
2021/12/17 17:24:11;;;;;;;30.63;18.00;;;10.20;96.70;;;;;;4973479;28;20049;-71
2021/12/17 17:26:39;;;;;;;36.65;20.45;;;10.10;96.70;;;;;;4955400;28;20062;-71
2021/12/17 17:29:08;;;;;;;33.28;18.92;;;10.00;96.70;;;;;;4975481;28;20069;-71
2021/12/17 17:31:37;;;;;;;29.75;19.45;;;10.00;96.70;;;;;;4971849;28;20031;-70
2021/12/17 17:34:08;;;;;;;28.05;17.45;;;10.00;96.70;;;;;;4955592;28;20065;-71
2021/12/17 17:36:39;;;;;;;33.88;19.02;;;10.10;96.70;;;;;;4977132;28;20073;-71
2021/12/17 17:39:10;;;;;;;31.65;18.05;;;10.10;96.70;;;;;;4977348;28;20047;-70
2021/12/17 17:41:38;;;;;;;30.67;16.67;;;10.10;96.70;;;;;;4972956;28;20164;-71
2021/12/17 17:44:09;;;;;;;30.15;17.80;;;10.10;96.70;;;;;;4975011;28;20058;-71
2021/12/17 17:46:37;;;;;;;23.95;16.60;;;10.10;96.70;;;;;;4975801;28;20490;-71
2021/12/17 17:49:07;;;;;;;29.70;17.13;;;10.00;96.70;;;;;;4942533;28;20043;-71
2021/12/17 17:51:37;;;;;;;29.38;17.70;;;9.90;96.70;;;;;;4954420;28;20054;-71
2021/12/17 17:54:06;;;;;;;31.05;19.05;;;9.60;96.70;;;;;;4970936;28;20126;-71
2021/12/17 17:56:34;;;;;;;30.40;18.60;;;9.60;96.70;;;;;;4958902;28;20092;-71
2021/12/17 17:59:04;;;;;;;35.22;17.95;;;9.30;96.70;;;;;;4971508;28;20070;-71
2021/12/17 18:01:34;;;;;;;36.05;20.40;;;9.30;96.70;;;;;;4972196;28;20126;-71
2021/12/17 18:04:02;;;;;;;38.38;20.27;;;9.40;96.70;;;;;;4953727;28;20047;-71
2021/12/17 18:06:31;;;;;;;37.28;20.83;;;9.30;96.70;;;;;;4972689;28;20314;-71
2021/12/17 18:08:59;;;;;;;31.02;20.98;;;9.40;96.70;;;;;;4969766;28;20038;-71
2021/12/17 18:11:27;;;;;;;36.65;20.42;;;9.50;96.70;;;;;;4974334;28;20046;-71
2021/12/17 18:13:56;;;;;;;36.78;21.58;;;9.50;96.70;;;;;;4970652;28;20089;-70
2021/12/17 18:16:26;;;;;;;38.33;23.77;;;9.40;96.70;;;;;;4952831;28;20042;-70
2021/12/17 18:18:57;;;;;;;35.95;21.40;;;9.30;96.70;;;;;;4953958;28;20042;-70
2021/12/17 18:21:25;;;;;;;38.63;24.83;;;9.30;96.70;;;;;;4952491;28;20145;-70
2021/12/17 18:23:53;;;;;;;38.13;24.67;;;9.30;96.70;;;;;;4978958;28;20073;-70
2021/12/17 18:26:23;;;;;;;41.47;28.25;;;9.40;96.70;;;;;;4953495;28;20142;-71
2021/12/17 18:28:56;;;;;;;40.28;26.58;;;9.40;96.70;;;;;;4954203;28;20580;-71
2021/12/17 18:31:25;;;;;;;46.03;26.83;;;9.30;96.70;;;;;;4953868;28;20077;-69
2021/12/17 18:33:55;;;;;;;39.58;24.80;;;9.40;96.70;;;;;;4974700;28;20057;-70
2021/12/17 18:36:24;;;;;;;41.80;26.23;;;9.30;96.70;;;;;;4977261;28;20053;-70
2021/12/17 18:38:52;;;;;;;39.88;25.80;;;9.20;96.70;;;;;;4967512;28;20058;-70
2021/12/17 18:41:30;;;;;;;33.20;20.67;;;9.20;96.70;;;;;;4953944;28;20051;-70
2021/12/17 18:44:11;;;;;;;25.98;17.33;;;9.20;96.70;;;;;;4957739;28;20077;-70
2021/12/17 18:46:43;;;;;;;29.63;17.23;;;9.20;96.70;;;;;;4969766;28;20424;-70
2021/12/17 18:49:13;;;;;;;22.60;15.88;;;9.10;96.70;;;;;;4974637;28;20050;-71
2021/12/17 18:51:42;;;;;;;28.25;18.50;;;9.00;96.70;;;;;;4968946;28;20411;-70
2021/12/17 18:54:11;;;;;;;24.48;15.15;;;8.90;96.70;;;;;;4957128;28;20042;-70
2021/12/17 18:56:40;;;;;;;17.58;11.82;;;8.80;96.70;;;;;;4955961;28;20120;-70
2021/12/17 18:59:10;;;;;;;17.08;10.85;;;8.60;96.70;;;;;;4969742;28;20163;-70
2021/12/17 19:01:40;;;;;;;14.82;10.05;;;8.60;96.70;;;;;;4970804;28;20097;-70
2021/12/17 19:04:08;;;;;;;16.95;10.77;;;8.60;96.70;;;;;;4954517;28;20564;-70
2021/12/17 19:06:46;;;;;;;17.48;11.38;;;8.60;96.70;;;;;;4935693;28;20042;-71
2021/12/17 19:09:15;;;;;;;20.20;12.68;;;8.60;96.70;;;;;;4955111;28;20039;-71
2021/12/17 19:11:45;;;;;;;19.20;12.55;;;8.50;96.70;;;;;;4971853;28;20129;-70
2021/12/17 19:14:14;;;;;;;17.45;12.25;;;8.30;96.70;;;;;;4972152;28;20047;-70
2021/12/17 19:16:46;;;;;;;19.83;11.68;;;8.40;96.70;;;;;;4953233;28;20101;-70
2021/12/17 19:19:25;;;;;;;21.38;11.65;;;8.50;96.70;;;;;;4969592;28;20122;-70
2021/12/17 19:24:27;;;;;;;21.15;12.48;;;8.50;96.70;;;;;;4974195;28;20259;-71
2021/12/17 19:26:55;;;;;;;24.05;13.75;;;8.50;96.70;;;;;;4971950;28;20125;-70